Time;durP1;ratioP1;P1;durP2;ratioP2;P2;SDS_P1;SDS_P2;PMS_P1;PMS_P2;Temp;Humidity;BMP_temperature;BMP_pressure;BME280_temperature;BME280_humidity;BME280_pressure;Samples;Min_cycle;Max_cycle;Signal;HPM_P1;HPM_P2
2022/02/19 00:01:25;;;;;;;21.05;9.25;;;;;;;;;;5077294;28;20096;-81
2022/02/19 00:03:51;;;;;;;30.02;11.50;;;;;;;;;;5077356;28;20020;-84
2022/02/19 00:06:17;;;;;;;27.33;11.23;;;;;;;;;;5077595;28;20016;-83
2022/02/19 00:08:44;;;;;;;19.70;9.10;;;;;;;;;;5077374;28;20020;-84
2022/02/19 00:11:10;;;;;;;18.65;8.57;;;;;;;;;;5075862;28;20048;-83
2022/02/19 00:13:36;;;;;;;21.45;8.35;;;;;;;;;;5077305;28;20027;-82
2022/02/19 00:16:05;;;;;;;21.90;9.27;;;;;;;;;;5077140;28;20017;-81
2022/02/19 00:18:32;;;;;;;21.00;9.52;;;;;;;;;;5077091;28;20411;-83
2022/02/19 00:20:58;;;;;;;18.80;8.70;;;;;;;;;;5076144;28;20170;-82
2022/02/19 00:23:28;;;;;;;20.92;8.82;;;;;;;;;;5075776;28;20036;-82
2022/02/19 00:25:54;;;;;;;17.65;8.65;;;;;;;;;;5076833;28;20311;-82
2022/02/19 00:28:21;;;;;;;19.75;8.90;;;;;;;;;;5076675;28;20021;-82
2022/02/19 00:30:47;;;;;;;23.15;8.82;;;;;;;;;;5077124;28;20032;-83
2022/02/19 00:33:13;;;;;;;18.98;8.25;;;;;;;;;;5075879;28;20032;-82
2022/02/19 00:35:40;;;;;;;19.02;8.88;;;;;;;;;;5076531;28;20032;-83
2022/02/19 00:38:06;;;;;;;16.42;8.60;;;;;;;;;;5077267;28;20071;-83
2022/02/19 00:40:32;;;;;;;20.30;8.30;;;;;;;;;;5076904;28;20040;-82
2022/02/19 00:42:58;;;;;;;19.77;8.32;;;;;;;;;;5075519;28;20033;-83
2022/02/19 00:45:24;;;;;;;21.88;8.68;;;;;;;;;;5076694;28;20054;-82
2022/02/19 00:47:51;;;;;;;18.77;8.48;;;;;;;;;;5076850;28;20067;-82
2022/02/19 00:50:17;;;;;;;23.77;9.43;;;;;;;;;;5076854;28;20028;-82
2022/02/19 00:55:46;;;;;;;19.65;8.73;;;;;;;;;;5076935;28;20477;-81
2022/02/19 00:58:12;;;;;;;19.15;8.52;;;;;;;;;;5076729;28;20456;-83
2022/02/19 01:00:38;;;;;;;21.17;8.35;;;;;;;;;;5076730;28;20021;-83
2022/02/19 01:03:04;;;;;;;20.75;9.98;;;;;;;;;;5076460;28;20028;-82
2022/02/19 01:05:31;;;;;;;19.27;9.23;;;;;;;;;;5076706;28;20408;-82
2022/02/19 01:07:57;;;;;;;17.80;7.95;;;;;;;;;;5075093;28;20106;-82
2022/02/19 01:10:23;;;;;;;20.80;9.40;;;;;;;;;;5076499;28;20028;-82
2022/02/19 01:12:49;;;;;;;20.75;8.90;;;;;;;;;;5076210;28;20423;-82
2022/02/19 01:15:15;;;;;;;20.45;9.18;;;;;;;;;;5076666;28;20066;-82
2022/02/19 01:17:41;;;;;;;20.13;9.57;;;;;;;;;;5076485;28;20032;-82
2022/02/19 01:20:11;;;;;;;24.00;9.02;;;;;;;;;;5078883;28;20100;-82
2022/02/19 01:23:11;;;;;;;21.10;8.63;;;;;;;;;;5080279;28;20048;-83
2022/02/19 01:25:38;;;;;;;24.17;9.40;;;;;;;;;;5080041;28;20028;-83
2022/02/19 01:28:04;;;;;;;21.73;9.77;;;;;;;;;;5080255;28;20028;-83
2022/02/19 01:30:31;;;;;;;22.48;9.98;;;;;;;;;;5078967;28;20025;-83
2022/02/19 01:32:57;;;;;;;24.27;10.07;;;;;;;;;;5078765;28;20353;-83
2022/02/19 01:35:23;;;;;;;21.50;9.48;;;;;;;;;;5079820;28;20021;-82
2022/02/19 01:37:50;;;;;;;21.90;10.00;;;;;;;;;;5080069;28;20029;-82
2022/02/19 01:40:16;;;;;;;23.33;10.43;;;;;;;;;;5079943;28;20040;-82
2022/02/19 01:42:42;;;;;;;23.75;9.82;;;;;;;;;;5079579;28;20039;-82
2022/02/19 01:45:11;;;;;;;21.02;10.10;;;;;;;;;;5079831;28;20016;-83
2022/02/19 01:47:37;;;;;;;24.42;10.75;;;;;;;;;;5079836;28;20024;-82
2022/02/19 01:50:04;;;;;;;23.73;9.38;;;;;;;;;;5079451;28;20074;-82
2022/02/19 01:52:31;;;;;;;21.23;10.25;;;;;;;;;;5079749;28;20070;-83
2022/02/19 01:54:57;;;;;;;20.25;9.48;;;;;;;;;;5078929;28;20029;-82
2022/02/19 01:57:24;;;;;;;19.63;9.35;;;;;;;;;;5079532;28;20134;-82
2022/02/19 01:59:50;;;;;;;19.95;9.20;;;;;;;;;;5079651;28;20315;-82
2022/02/19 02:02:17;;;;;;;21.20;9.82;;;;;;;;;;5078211;28;20020;-82
2022/02/19 02:04:43;;;;;;;23.70;9.52;;;;;;;;;;5079179;28;20406;-82
2022/02/19 02:07:10;;;;;;;20.58;9.18;;;;;;;;;;5079490;28;20135;-82
2022/02/19 02:09:37;;;;;;;18.65;9.45;;;;;;;;;;5079313;28;20021;-82
2022/02/19 02:12:04;;;;;;;26.23;9.85;;;;;;;;;;5079123;28;20118;-82
2022/02/19 02:14:30;;;;;;;20.17;8.95;;;;;;;;;;5079112;28;20021;-82
2022/02/19 02:16:56;;;;;;;19.63;9.00;;;;;;;;;;5078994;28;20056;-82
2022/02/19 02:19:22;;;;;;;23.08;9.30;;;;;;;;;;5078755;28;20032;-82
2022/02/19 02:21:48;;;;;;;21.02;9.32;;;;;;;;;;5079026;28;20070;-82
2022/02/19 02:24:14;;;;;;;21.02;9.45;;;;;;;;;;5077730;28;20421;-82
2022/02/19 02:26:40;;;;;;;22.13;9.57;;;;;;;;;;5079064;28;20303;-82
2022/02/19 02:29:07;;;;;;;22.05;9.45;;;;;;;;;;5078709;28;20059;-83
2022/02/19 02:31:33;;;;;;;24.55;9.40;;;;;;;;;;5078710;28;20021;-82
2022/02/19 02:33:59;;;;;;;20.33;8.40;;;;;;;;;;5078615;28;20025;-82
2022/02/19 02:36:25;;;;;;;23.02;10.18;;;;;;;;;;5078457;28;20468;-82
2022/02/19 02:38:53;;;;;;;22.23;10.85;;;;;;;;;;5078657;28;20478;-82
2022/02/19 02:41:21;;;;;;;23.30;8.88;;;;;;;;;;5078448;28;20323;-81
2022/02/19 02:43:47;;;;;;;21.20;9.15;;;;;;;;;;5078408;28;20025;-82
2022/02/19 02:46:13;;;;;;;25.52;10.00;;;;;;;;;;5078506;28;20024;-83
2022/02/19 02:48:39;;;;;;;22.48;10.02;;;;;;;;;;5077556;28;20102;-83
2022/02/19 02:51:07;;;;;;;18.90;9.65;;;;;;;;;;5078524;28;20024;-83
2022/02/19 02:53:33;;;;;;;22.08;9.60;;;;;;;;;;5078379;28;20107;-82
2022/02/19 02:55:59;;;;;;;22.15;10.27;;;;;;;;;;5078599;28;20043;-82
2022/02/19 02:58:25;;;;;;;17.85;8.77;;;;;;;;;;5078410;28;20119;-82
2022/02/19 03:00:51;;;;;;;22.35;9.85;;;;;;;;;;5078225;28;20437;-82
2022/02/19 03:03:17;;;;;;;23.35;9.50;;;;;;;;;;5078018;28;20470;-83
2022/02/19 03:05:43;;;;;;;22.58;9.35;;;;;;;;;;5077910;28;20418;-82
2022/02/19 03:08:09;;;;;;;25.27;9.45;;;;;;;;;;5078336;28;20040;-82
2022/02/19 03:10:35;;;;;;;23.17;9.40;;;;;;;;;;5078022;28;20024;-82
2022/02/19 03:13:02;;;;;;;20.67;9.15;;;;;;;;;;5077559;28;20148;-82
2022/02/19 03:15:28;;;;;;;20.77;9.45;;;;;;;;;;5077894;28;20020;-82
2022/02/19 03:17:54;;;;;;;27.00;9.88;;;;;;;;;;5077880;28;20066;-82
2022/02/19 03:20:21;;;;;;;24.42;9.85;;;;;;;;;;5077769;28;20017;-82
2022/02/19 03:22:47;;;;;;;23.80;10.50;;;;;;;;;;5076631;28;20449;-82
2022/02/19 03:25:17;;;;;;;24.88;11.48;;;;;;;;;;5077801;28;20032;-82
2022/02/19 03:27:43;;;;;;;27.75;11.50;;;;;;;;;;5077689;28;20029;-83
2022/02/19 03:30:10;;;;;;;24.65;10.15;;;;;;;;;;5077644;28;20016;-82
2022/02/19 03:32:37;;;;;;;20.42;9.43;;;;;;;;;;5077446;28;20032;-82
2022/02/19 03:35:04;;;;;;;24.75;10.07;;;;;;;;;;5077448;28;20055;-83
2022/02/19 03:37:34;;;;;;;19.55;9.40;;;;;;;;;;5077847;28;20032;-82
2022/02/19 03:40:06;;;;;;;21.15;9.15;;;;;;;;;;5077700;28;20028;-83
2022/02/19 03:42:32;;;;;;;20.23;8.82;;;;;;;;;;5077093;28;20056;-83
2022/02/19 03:44:58;;;;;;;21.50;9.80;;;;;;;;;;5077373;28;20024;-83
2022/02/19 03:47:24;;;;;;;24.70;9.82;;;;;;;;;;5077442;28;20017;-82
2022/02/19 03:49:50;;;;;;;22.70;11.07;;;;;;;;;;5077615;28;20016;-83
2022/02/19 03:52:16;;;;;;;19.42;10.40;;;;;;;;;;5076311;28;20119;-82
2022/02/19 03:55:03;;;;;;;28.17;10.32;;;;;;;;;;5077410;28;20051;-82
2022/02/19 03:57:29;;;;;;;23.05;10.88;;;;;;;;;;5076184;28;20074;-82
2022/02/19 03:59:55;;;;;;;27.80;10.20;;;;;;;;;;5077218;28;20430;-82
2022/02/19 04:02:21;;;;;;;22.52;9.27;;;;;;;;;;5077509;28;20024;-83
2022/02/19 04:04:47;;;;;;;24.25;10.35;;;;;;;;;;5077124;28;20028;-82
2022/02/19 04:07:13;;;;;;;25.40;10.13;;;;;;;;;;5077205;28;20056;-82
2022/02/19 04:09:39;;;;;;;25.85;11.55;;;;;;;;;;5077066;28;20024;-82
2022/02/19 04:12:05;;;;;;;24.80;12.20;;;;;;;;;;5076821;28;20056;-82
2022/02/19 04:14:31;;;;;;;20.58;10.65;;;;;;;;;;5077044;28;20098;-82
2022/02/19 04:16:57;;;;;;;27.92;13.85;;;;;;;;;;5076935;28;20406;-82
2022/02/19 04:19:23;;;;;;;26.60;14.75;;;;;;;;;;5077202;28;20028;-82
2022/02/19 04:21:49;;;;;;;29.63;16.00;;;;;;;;;;5077190;28;20367;-82
2022/02/19 04:24:15;;;;;;;32.55;17.70;;;;;;;;;;5077090;28;20021;-82
2022/02/19 04:26:41;;;;;;;39.20;18.58;;;;;;;;;;5076918;28;20052;-83
2022/02/19 04:29:07;;;;;;;40.90;20.00;;;;;;;;;;5077157;28;20024;-83
2022/02/19 04:31:34;;;;;;;32.70;18.73;;;;;;;;;;5077169;28;20070;-83
2022/02/19 04:34:00;;;;;;;29.95;15.40;;;;;;;;;;5076923;28;20119;-82
2022/02/19 04:36:26;;;;;;;28.67;14.75;;;;;;;;;;5076932;28;20040;-81
2022/02/19 04:38:52;;;;;;;27.77;12.98;;;;;;;;;;5076873;28;20021;-82
2022/02/19 04:41:18;;;;;;;29.08;11.40;;;;;;;;;;5076722;28;20032;-81
2022/02/19 04:43:44;;;;;;;25.73;11.50;;;;;;;;;;5075670;28;20068;-82
2022/02/19 04:46:10;;;;;;;25.70;11.88;;;;;;;;;;5076946;28;20013;-82
2022/02/19 04:48:36;;;;;;;27.95;12.20;;;;;;;;;;5077028;28;20400;-83
2022/02/19 04:51:02;;;;;;;27.35;12.82;;;;;;;;;;5075115;28;20323;-83
2022/02/19 04:53:47;;;;;;;27.20;14.00;;;;;;;;;;5077033;28;20020;-83
2022/02/19 04:56:13;;;;;;;28.42;15.50;;;;;;;;;;5080584;28;20028;-83
2022/02/19 04:58:39;;;;;;;33.88;15.48;;;;;;;;;;5080499;28;20119;-83
2022/02/19 05:01:05;;;;;;;29.60;15.65;;;;;;;;;;5080322;28;20024;-83
2022/02/19 05:03:31;;;;;;;28.52;12.75;;;;;;;;;;5080333;28;20422;-83
2022/02/19 05:05:57;;;;;;;28.88;13.32;;;;;;;;;;5080400;28;20020;-83
2022/02/19 05:08:23;;;;;;;35.40;12.63;;;;;;;;;;5079103;28;20330;-82
2022/02/19 05:10:49;;;;;;;35.67;12.82;;;;;;;;;;5079921;28;20040;-82
2022/02/19 05:13:16;;;;;;;30.30;13.93;;;;;;;;;;5079132;28;20043;-82
2022/02/19 05:15:42;;;;;;;34.75;13.05;;;;;;;;;;5079856;28;20028;-82
2022/02/19 05:18:08;;;;;;;24.17;11.63;;;;;;;;;;5080225;28;20037;-82
2022/02/19 05:20:34;;;;;;;33.15;11.43;;;;;;;;;;5091961;28;20066;-82
2022/02/19 05:23:00;;;;;;;30.52;12.90;;;;;;;;;;5080209;28;20032;-81
2022/02/19 05:25:26;;;;;;;33.83;13.68;;;;;;;;;;5082898;28;20040;-81
2022/02/19 05:27:52;;;;;;;38.63;13.63;;;;;;;;;;5081435;28;20029;-83
2022/02/19 05:30:18;;;;;;;25.27;11.75;;;;;;;;;;5092239;28;20071;-82
2022/02/19 05:32:44;;;;;;;28.65;10.80;;;;;;;;;;5095499;28;20434;-81
2022/02/19 05:35:10;;;;;;;25.15;10.60;;;;;;;;;;5100006;28;20406;-81
2022/02/19 05:37:36;;;;;;;18.13;9.00;;;;;;;;;;5095867;28;20460;-82
2022/02/19 05:40:03;;;;;;;32.88;12.40;;;;;;;;;;5078610;28;20028;-82
2022/02/19 05:42:29;;;;;;;38.40;15.52;;;;;;;;;;5078390;28;20124;-82
2022/02/19 05:44:55;;;;;;;32.67;13.98;;;;;;;;;;5078687;28;20052;-82
2022/02/19 05:47:22;;;;;;;33.88;13.20;;;;;;;;;;5078469;28;20483;-82
2022/02/19 05:49:48;;;;;;;34.13;16.40;;;;;;;;;;5079757;28;20310;-82
2022/02/19 05:52:15;;;;;;;51.08;23.52;;;;;;;;;;5079484;28;20032;-82
2022/02/19 05:54:41;;;;;;;47.30;23.33;;;;;;;;;;5079471;28;20438;-82
2022/02/19 05:57:08;;;;;;;49.70;21.80;;;;;;;;;;5079605;28;20032;-82
2022/02/19 05:59:34;;;;;;;47.72;19.38;;;;;;;;;;5079414;28;20074;-82
2022/02/19 06:02:00;;;;;;;39.50;18.85;;;;;;;;;;5079299;28;20024;-82
2022/02/19 06:04:27;;;;;;;60.13;25.17;;;;;;;;;;5079439;28;20052;-82
2022/02/19 06:06:53;;;;;;;46.53;22.38;;;;;;;;;;5086853;28;20071;-82
2022/02/19 06:09:19;;;;;;;47.33;22.40;;;;;;;;;;5083472;28;20024;-81
2022/02/19 06:11:46;;;;;;;53.30;27.02;;;;;;;;;;5095825;28;20101;-81
2022/02/19 06:14:12;;;;;;;51.60;24.17;;;;;;;;;;5099676;28;20032;-82
2022/02/19 06:16:38;;;;;;;57.33;25.95;;;;;;;;;;5099207;28;20020;-81
2022/02/19 06:19:05;;;;;;;71.00;32.13;;;;;;;;;;5091867;28;20024;-82
2022/02/19 06:21:31;;;;;;;59.42;29.80;;;;;;;;;;5080887;28;20070;-81
2022/02/19 06:23:57;;;;;;;51.80;29.58;;;;;;;;;;5079880;28;20024;-82
2022/02/19 06:26:23;;;;;;;76.18;43.78;;;;;;;;;;5078823;28;20031;-82
2022/02/19 06:28:49;;;;;;;72.65;46.25;;;;;;;;;;5078602;28;20462;-81
2022/02/19 06:31:15;;;;;;;61.92;36.65;;;;;;;;;;5091815;28;20031;-81
2022/02/19 06:33:42;;;;;;;48.30;26.50;;;;;;;;;;5098945;28;20024;-81
2022/02/19 06:36:08;;;;;;;46.30;22.63;;;;;;;;;;5098607;28;20077;-81
2022/02/19 06:38:39;;;;;;;36.63;19.30;;;;;;;;;;5097724;28;20031;-82
2022/02/19 06:41:09;;;;;;;36.43;18.87;;;;;;;;;;5098878;28;20402;-81
2022/02/19 06:43:35;;;;;;;37.95;19.33;;;;;;;;;;5097633;28;20298;-81
2022/02/19 06:46:02;;;;;;;36.70;18.85;;;;;;;;;;5098681;28;20406;-81
2022/02/19 06:48:28;;;;;;;46.92;21.00;;;;;;;;;;5098905;28;20044;-81
2022/02/19 06:50:56;;;;;;;35.30;18.65;;;;;;;;;;5098526;28;20402;-81
2022/02/19 06:53:22;;;;;;;43.08;20.77;;;;;;;;;;5098734;28;20032;-81
2022/02/19 06:55:48;;;;;;;35.10;18.70;;;;;;;;;;5098486;28;20363;-81
2022/02/19 06:58:15;;;;;;;36.85;19.20;;;;;;;;;;5097382;28;20032;-81
2022/02/19 07:00:41;;;;;;;38.88;17.23;;;;;;;;;;5098321;28;20098;-81
2022/02/19 07:03:07;;;;;;;51.67;22.58;;;;;;;;;;5097264;28;20043;-81
2022/02/19 07:05:33;;;;;;;150.43;97.53;;;;;;;;;;5098261;28;20020;-81
2022/02/19 07:07:59;;;;;;;87.35;51.20;;;;;;;;;;5098431;28;20024;-81
2022/02/19 07:10:27;;;;;;;65.13;33.60;;;;;;;;;;5098108;28;20027;-81
2022/02/19 07:12:53;;;;;;;77.50;32.45;;;;;;;;;;5097879;28;20097;-81
2022/02/19 07:15:20;;;;;;;58.03;26.15;;;;;;;;;;5098229;28;20024;-81
2022/02/19 07:17:53;;;;;;;62.05;26.30;;;;;;;;;;5097266;28;20059;-81
2022/02/19 07:20:21;;;;;;;52.60;24.10;;;;;;;;;;5098148;28;20086;-81
2022/02/19 07:22:47;;;;;;;44.72;22.48;;;;;;;;;;5097893;28;20023;-81
2022/02/19 07:25:13;;;;;;;37.42;19.33;;;;;;;;;;5096800;28;20032;-81
2022/02/19 07:27:40;;;;;;;36.83;20.98;;;;;;;;;;5098146;28;20043;-81
2022/02/19 07:30:07;;;;;;;35.15;19.70;;;;;;;;;;5097776;28;20442;-81
2022/02/19 07:32:34;;;;;;;33.83;19.73;;;;;;;;;;5096738;28;20414;-80
2022/02/19 07:35:00;;;;;;;43.50;22.10;;;;;;;;;;5097817;28;20375;-81
2022/02/19 07:37:26;;;;;;;56.50;25.45;;;;;;;;;;5097988;28;20027;-81
2022/02/19 07:39:53;;;;;;;52.72;26.85;;;;;;;;;;5097588;28;20032;-80
2022/02/19 07:42:19;;;;;;;65.68;33.70;;;;;;;;;;5097657;28;20032;-81
2022/02/19 07:44:45;;;;;;;65.30;30.17;;;;;;;;;;5096599;28;20028;-81
2022/02/19 07:47:11;;;;;;;62.38;28.90;;;;;;;;;;5097673;28;20054;-81
2022/02/19 08:00:35;;;;;;;42.33;21.45;;;;;;;;;;5097548;28;20043;-81
2022/02/19 08:03:02;;;;;;;46.65;22.77;;;;;;;;;;5096160;28;20299;-80
2022/02/19 08:05:28;;;;;;;46.83;23.13;;;;;;;;;;5097516;28;20016;-79
2022/02/19 08:07:54;;;;;;;50.63;23.92;;;;;;;;;;5097587;28;20020;-79
2022/02/19 08:10:20;;;;;;;52.88;25.02;;;;;;;;;;5097522;28;20099;-79
2022/02/19 08:12:46;;;;;;;69.55;27.80;;;;;;;;;;5096999;28;20093;-80
2022/02/19 08:15:12;;;;;;;92.30;36.75;;;;;;;;;;5097344;28;20044;-81
2022/02/19 08:17:38;;;;;;;96.65;38.65;;;;;;;;;;5097244;28;20070;-80
2022/02/19 08:20:04;;;;;;;109.60;43.58;;;;;;;;;;5097376;28;20035;-81
2022/02/19 08:22:30;;;;;;;92.40;38.83;;;;;;;;;;5095904;28;20026;-80
2022/02/19 08:24:56;;;;;;;90.65;36.35;;;;;;;;;;5096959;28;20016;-79
2022/02/19 08:27:22;;;;;;;93.32;38.50;;;;;;;;;;5095992;28;20048;-80
2022/02/19 08:29:48;;;;;;;97.53;40.90;;;;;;;;;;5100972;28;20016;-80
2022/02/19 08:32:15;;;;;;;85.20;36.72;;;;;;;;;;5101264;28;20044;-80
2022/02/19 08:34:41;;;;;;;85.60;35.25;;;;;;;;;;5100936;28;20123;-80
2022/02/19 08:37:07;;;;;;;73.13;33.75;;;;;;;;;;5100870;28;20028;-80
2022/02/19 08:39:33;;;;;;;91.35;37.83;;;;;;;;;;5101017;28;20065;-80
2022/02/19 08:41:59;;;;;;;78.07;32.03;;;;;;;;;;5101043;28;20402;-80
2022/02/19 08:44:25;;;;;;;63.40;30.65;;;;;;;;;;5100952;28;20021;-80
2022/02/19 08:46:51;;;;;;;62.80;29.77;;;;;;;;;;5099992;28;20020;-80
2022/02/19 08:49:17;;;;;;;132.07;55.40;;;;;;;;;;5100667;28;20410;-80
2022/02/19 08:51:43;;;;;;;109.10;45.30;;;;;;;;;;5100681;28;20149;-80
2022/02/19 08:54:09;;;;;;;111.70;40.60;;;;;;;;;;5099394;28;20070;-80
2022/02/19 08:56:36;;;;;;;91.47;33.28;;;;;;;;;;5100997;28;20031;-80
2022/02/19 08:59:02;;;;;;;96.47;34.85;;;;;;;;;;5092500;28;20334;-80
2022/02/19 09:01:29;;;;;;;71.88;29.67;;;;;;;;;;5082154;28;20048;-80
2022/02/19 09:03:55;;;;;;;63.22;26.40;;;;;;;;;;5088798;28;20028;-80
2022/02/19 09:06:22;;;;;;;48.13;19.23;;;;;;;;;;5080286;28;20066;-80
2022/02/19 09:08:48;;;;;;;25.13;12.70;;;;;;;;;;5080229;28;20024;-79
2022/02/19 09:11:15;;;;;;;24.88;12.00;;;;;;;;;;5079909;28;20090;-80
2022/02/19 09:13:41;;;;;;;27.27;11.70;;;;;;;;;;5079859;28;20029;-80
2022/02/19 09:16:07;;;;;;;17.92;9.32;;;;;;;;;;5080343;28;20066;-80
2022/02/19 09:18:33;;;;;;;15.55;8.80;;;;;;;;;;5079851;28;20020;-80
2022/02/19 09:20:59;;;;;;;16.85;9.48;;;;;;;;;;5079988;28;20414;-80
2022/02/19 09:23:25;;;;;;;24.02;11.32;;;;;;;;;;5079931;28;20421;-80
2022/02/19 09:25:51;;;;;;;19.30;9.50;;;;;;;;;;5080149;28;20025;-80
2022/02/19 09:28:21;;;;;;;30.52;12.93;;;;;;;;;;5079943;28;20096;-80
2022/02/19 09:30:47;;;;;;;24.65;11.20;;;;;;;;;;5080155;28;20401;-80
2022/02/19 09:33:13;;;;;;;35.80;18.17;;;;;;;;;;5079908;28;20040;-80
2022/02/19 09:35:39;;;;;;;35.55;17.17;;;;;;;;;;5079864;28;20024;-80
2022/02/19 09:38:05;;;;;;;55.95;20.67;;;;;;;;;;5078463;28;20041;-79
2022/02/19 09:40:31;;;;;;;43.25;18.50;;;;;;;;;;5078870;28;20119;-80
2022/02/19 09:42:57;;;;;;;37.22;19.00;;;;;;;;;;5079996;28;20037;-80
2022/02/19 09:45:29;;;;;;;37.50;19.10;;;;;;;;;;5079583;28;20445;-81
2022/02/19 09:47:56;;;;;;;37.75;21.40;;;;;;;;;;5078435;28;20115;-80
2022/02/19 09:50:25;;;;;;;42.88;12.98;;;;;;;;;;5078507;28;20025;-81
2022/02/19 09:52:51;;;;;;;28.95;11.95;;;;;;;;;;5078562;28;20024;-80
2022/02/19 09:55:17;;;;;;;27.50;12.10;;;;;;;;;;5079557;28;20108;-80
2022/02/19 09:57:43;;;;;;;31.20;12.20;;;;;;;;;;5079650;28;20032;-80
2022/02/19 10:00:10;;;;;;;20.52;9.57;;;;;;;;;;5079305;28;20024;-80
2022/02/19 10:02:36;;;;;;;24.52;9.95;;;;;;;;;;5079206;28;20028;-80
2022/02/19 10:05:15;;;;;;;17.42;9.32;;;;;;;;;;5079369;28;20118;-81
2022/02/19 10:07:42;;;;;;;21.05;9.35;;;;;;;;;;5079177;28;20046;-80
2022/02/19 10:10:08;;;;;;;20.17;8.40;;;;;;;;;;5079406;28;20032;-80
2022/02/19 10:12:45;;;;;;;22.92;9.27;;;;;;;;;;5078931;28;20432;-80
2022/02/19 10:15:11;;;;;;;26.25;10.88;;;;;;;;;;5079191;28;20032;-80
2022/02/19 10:17:40;;;;;;;30.50;15.00;;;;;;;;;;5078954;28;20070;-80
2022/02/19 10:20:07;;;;;;;23.02;10.90;;;;;;;;;;5079030;28;20029;-80
2022/02/19 10:22:35;;;;;;;33.03;15.05;;;;;;;;;;5078990;28;20024;-80
2022/02/19 10:25:08;;;;;;;43.15;19.52;;;;;;;;;;5078918;28;20017;-80
2022/02/19 10:27:51;;;;;;;26.23;11.77;;;;;;;;;;5078817;28;20043;-80
2022/02/19 10:30:18;;;;;;;18.52;8.52;;;;;;;;;;5078758;28;20307;-80
2022/02/19 10:33:02;;;;;;;18.90;8.30;;;;;;;;;;5078710;28;20062;-80
2022/02/19 10:35:29;;;;;;;15.20;7.07;;;;;;;;;;5078843;28;20020;-80
2022/02/19 10:37:55;;;;;;;24.67;12.00;;;;;;;;;;5078582;28;20029;-80
2022/02/19 10:40:34;;;;;;;22.13;12.63;;;;;;;;;;5078490;28;20457;-80
2022/02/19 10:43:04;;;;;;;19.02;9.75;;;;;;;;;;5078552;28;20036;-80
2022/02/19 10:45:31;;;;;;;18.92;8.18;;;;;;;;;;5078415;28;20310;-80
2022/02/19 10:48:18;;;;;;;17.15;8.20;;;;;;;;;;5078612;28;20013;-80
2022/02/19 10:50:45;;;;;;;16.58;8.55;;;;;;;;;;5078055;28;20315;-80
2022/02/19 10:53:19;;;;;;;22.92;10.57;;;;;;;;;;5077433;28;20020;-80
2022/02/19 10:55:45;;;;;;;23.50;9.82;;;;;;;;;;5077195;28;20322;-80
2022/02/19 10:58:11;;;;;;;16.77;9.50;;;;;;;;;;5077204;28;20037;-80
2022/02/19 11:00:40;;;;;;;22.83;9.25;;;;;;;;;;5078440;28;20044;-80
2022/02/19 11:03:06;;;;;;;16.75;9.50;;;;;;;;;;5076981;28;20422;-80
2022/02/19 11:05:32;;;;;;;18.40;9.07;;;;;;;;;;5078166;28;20032;-80
2022/02/19 11:08:02;;;;;;;17.95;9.38;;;;;;;;;;5076968;28;20028;-80
2022/02/19 11:10:29;;;;;;;20.90;11.25;;;;;;;;;;5078023;28;20032;-80
2022/02/19 11:12:55;;;;;;;23.60;10.07;;;;;;;;;;5076615;28;20052;-79
2022/02/19 11:15:25;;;;;;;17.33;7.60;;;;;;;;;;5077988;28;20032;-80
2022/02/19 11:17:52;;;;;;;15.23;8.68;;;;;;;;;;5078062;28;20028;-80
2022/02/19 11:20:18;;;;;;;20.35;11.00;;;;;;;;;;5078153;28;20138;-80
2022/02/19 11:22:44;;;;;;;22.10;12.30;;;;;;;;;;5077739;28;20024;-80
2022/02/19 11:25:11;;;;;;;23.70;11.60;;;;;;;;;;5077725;28;20360;-80
2022/02/19 11:27:46;;;;;;;32.47;13.52;;;;;;;;;;5076564;28;20017;-80
2022/02/19 11:30:12;;;;;;;22.85;12.23;;;;;;;;;;5076633;28;20042;-78
2022/02/19 11:43:45;;;;;;;23.00;11.90;;;;;;;;;;5115425;27;20406;-83
2022/02/19 11:46:14;;;;;;;21.15;10.00;;;;;;;;;;5114983;28;20020;-80
2022/02/19 11:48:44;;;;;;;12.88;6.95;;;;;;;;;;5113634;28;20020;-80
2022/02/19 11:51:11;;;;;;;21.67;9.10;;;;;;;;;;5113090;28;20065;-80
2022/02/19 11:53:37;;;;;;;13.68;6.28;;;;;;;;;;5114582;28;20028;-80
2022/02/19 11:56:10;;;;;;;12.52;5.68;;;;;;;;;;5114576;28;20414;-81
2022/02/19 11:58:49;;;;;;;11.80;5.30;;;;;;;;;;5114532;28;20024;-80
2022/02/19 12:01:15;;;;;;;9.48;3.97;;;;;;;;;;5114780;28;20065;-81
2022/02/19 12:03:41;;;;;;;10.88;4.30;;;;;;;;;;5112997;28;20049;-80
2022/02/19 12:06:23;;;;;;;11.15;3.88;;;;;;;;;;5114534;28;20058;-81
2022/02/19 12:08:49;;;;;;;15.13;5.00;;;;;;;;;;5114395;28;20028;-81
2022/02/19 12:11:15;;;;;;;12.23;5.10;;;;;;;;;;5114116;28;20277;-81
2022/02/19 12:13:45;;;;;;;12.32;4.30;;;;;;;;;;5114387;28;20027;-81
2022/02/19 12:16:39;;;;;;;11.30;4.30;;;;;;;;;;5114231;28;20413;-80
2022/02/19 12:19:06;;;;;;;11.98;3.80;;;;;;;;;;5114144;28;20024;-81
2022/02/19 12:21:36;;;;;;;9.00;3.28;;;;;;;;;;5114058;28;20102;-81
2022/02/19 12:24:14;;;;;;;10.25;3.85;;;;;;;;;;5114290;28;20027;-81
2022/02/19 12:26:55;;;;;;;11.25;4.88;;;;;;;;;;5114327;28;20024;-81
2022/02/19 12:29:29;;;;;;;8.88;4.50;;;;;;;;;;5114068;28;20024;-80
2022/02/19 12:32:02;;;;;;;13.38;4.85;;;;;;;;;;5113791;28;20027;-81
2022/02/19 12:34:33;;;;;;;9.07;4.28;;;;;;;;;;5113812;28;20305;-81
2022/02/19 12:36:59;;;;;;;7.97;4.10;;;;;;;;;;5113943;28;20290;-81
2022/02/19 12:39:28;;;;;;;17.65;5.53;;;;;;;;;;5111451;28;20024;-80
2022/02/19 12:41:55;;;;;;;16.30;6.22;;;;;;;;;;5093169;28;20064;-80
2022/02/19 12:44:21;;;;;;;13.88;6.47;;;;;;;;;;5080963;28;20028;-81
2022/02/19 12:46:49;;;;;;;22.88;8.13;;;;;;;;;;5078632;28;20031;-81
2022/02/19 12:49:16;;;;;;;19.52;8.05;;;;;;;;;;5078471;28;20029;-80
2022/02/19 12:51:43;;;;;;;32.30;14.48;;;;;;;;;;5079447;28;20048;-81
2022/02/19 12:54:09;;;;;;;20.52;11.02;;;;;;;;;;5078575;28;20493;-81
2022/02/19 12:56:41;;;;;;;34.67;15.68;;;;;;;;;;5079563;28;20103;-80
2022/02/19 12:59:07;;;;;;;;;;;;;;;;;;5079940;28;20016;-81
2022/02/19 13:01:33;;;;;;;15.50;7.88;;;;;;;;;;5079225;28;19904;-80
2022/02/19 13:04:00;;;;;;;18.75;9.38;;;;;;;;;;5079611;28;20075;-81
2022/02/19 13:06:27;;;;;;;28.48;13.68;;;;;;;;;;5079540;28;20028;-81
2022/02/19 13:09:08;;;;;;;31.00;15.63;;;;;;;;;;5078396;28;20021;-82
2022/02/19 13:11:34;;;;;;;30.10;14.95;;;;;;;;;;5078216;28;20039;-81
2022/02/19 13:14:05;;;;;;;26.13;13.13;;;;;;;;;;5078114;28;20052;-81
2022/02/19 13:16:31;;;;;;;22.75;12.15;;;;;;;;;;5077756;28;20074;-80
2022/02/19 13:18:57;;;;;;;15.48;7.28;;;;;;;;;;5079302;28;20315;-80
2022/02/19 13:21:23;;;;;;;16.23;8.10;;;;;;;;;;5077861;28;20375;-81
2022/02/19 13:23:51;;;;;;;12.82;6.25;;;;;;;;;;5079158;28;20027;-81
2022/02/19 13:26:28;;;;;;;17.35;9.57;;;;;;;;;;5078922;28;20066;-81
2022/02/19 13:28:55;;;;;;;16.13;7.47;;;;;;;;;;5079045;28;20082;-81
2022/02/19 13:31:22;;;;;;;10.43;5.32;;;;;;;;;;5078905;28;20031;-81
2022/02/19 13:33:48;;;;;;;15.45;6.32;;;;;;;;;;5078897;28;20345;-81
2022/02/19 13:36:14;;;;;;;16.35;7.35;;;;;;;;;;5078778;28;20111;-81
2022/02/19 13:38:41;;;;;;;13.65;6.13;;;;;;;;;;5078855;28;20037;-81
2022/02/19 13:41:07;;;;;;;9.55;4.75;;;;;;;;;;5078309;28;20305;-81
2022/02/19 13:43:34;;;;;;;8.82;4.00;;;;;;;;;;5078169;28;20086;-81
2022/02/19 13:46:13;;;;;;;15.32;4.28;;;;;;;;;;5078481;28;20039;-81
2022/02/19 13:48:39;;;;;;;10.50;3.20;;;;;;;;;;5078703;28;20032;-81
2022/02/19 13:51:07;;;;;;;16.13;4.45;;;;;;;;;;5078461;28;20024;-81
2022/02/19 13:53:39;;;;;;;11.75;5.72;;;;;;;;;;5078475;28;20032;-81
2022/02/19 13:56:07;;;;;;;23.05;10.57;;;;;;;;;;5077505;28;20021;-81
2022/02/19 13:58:35;;;;;;;16.88;8.65;;;;;;;;;;5078565;28;20279;-81
2022/02/19 14:01:17;;;;;;;15.48;7.60;;;;;;;;;;5078254;28;20104;-81
2022/02/19 14:03:43;;;;;;;;;;;;;;;;;;5078628;28;20021;-81
2022/02/19 14:06:25;;;;;;;13.55;4.63;;;;;;;;;;5078259;28;19991;-81
2022/02/19 14:09:08;;;;;;;11.13;3.95;;;;;;;;;;5078251;28;20032;-81
2022/02/19 14:11:34;;;;;;;14.27;4.03;;;;;;;;;;5077839;28;20033;-81
2022/02/19 14:14:01;;;;;;;12.18;4.18;;;;;;;;;;5078010;28;20028;-81
2022/02/19 14:16:27;;;;;;;12.70;4.78;;;;;;;;;;5078139;28;20090;-81
2022/02/19 14:19:03;;;;;;;7.70;3.88;;;;;;;;;;5077843;28;20025;-80
2022/02/19 14:21:29;;;;;;;7.28;3.85;;;;;;;;;;5077865;28;20115;-81
2022/02/19 14:24:11;;;;;;;13.35;6.95;;;;;;;;;;5077897;28;20028;-81
2022/02/19 14:26:37;;;;;;;8.52;4.28;;;;;;;;;;5076517;28;20043;-81
2022/02/19 14:29:03;;;;;;;10.43;3.80;;;;;;;;;;5077910;28;20055;-81
2022/02/19 14:31:29;;;;;;;9.18;5.00;;;;;;;;;;5077665;28;20103;-81
2022/02/19 14:33:55;;;;;;;8.43;4.80;;;;;;;;;;5077734;28;20025;-81
2022/02/19 14:36:25;;;;;;;10.55;5.00;;;;;;;;;;5077883;28;20023;-81
2022/02/19 14:38:51;;;;;;;7.93;4.10;;;;;;;;;;5077766;28;20028;-81
2022/02/19 14:41:18;;;;;;;17.90;6.32;;;;;;;;;;5076134;28;20041;-81
2022/02/19 14:43:44;;;;;;;35.83;14.80;;;;;;;;;;5077140;28;20044;-81
2022/02/19 14:46:10;;;;;;;48.47;17.08;;;;;;;;;;5076130;28;20036;-81
2022/02/19 14:48:36;;;;;;;55.33;20.23;;;;;;;;;;5077307;28;20029;-81
2022/02/19 14:51:02;;;;;;;50.83;19.77;;;;;;;;;;5075704;28;20033;-80